Hillcrest, Illinois
Current Conditions -  °F | °C
As of 7:15 AM on Thursday 27 Nov 2014 (Local Time) from KRPJ Reporting Station
Light Snow Light Snow  
Wind Chill: 13°   Ceiling: 2600
Heat Index: 22°   Visibility: 4mi
Dew Point: 20°   Wind: 8mph
Humidity: 91%   Direction: 280°W
Pressure: 30.33"   Gusts: NA
Location:  41.9424°N, 89.0653°W
Report Text: KRPJ 271315Z AUTO 28007KT 4SM -SN OVC026 M05/M07 A3033 RMK AO2 T10551068
Loading
Personal Weather Stations






























Interactive Weather Map New forecast layout! Learn more

10-Day Weather Forecast

Advertisements
Track Severe Weather on mobile